02:04 Laufen Moetz - Schotter - Telfs - Fiecht - Locherboden - Moetz
Ort Moetz Datum 05.06.2015 10:42:29
Kategorie Trail
Distanz 25,02 Kilometer Steigung 371,0 Meter Gefälle -329,0 Meter
Gesamt Zeit 02:08:38 Aktiv 02:04:19 Pause 00:04:19
Durchs. Tempo 00:04:58 min/km Tempo max. 00:03:53 min/km Tempo min. 00:08:31 min/km
Kalorien 0 Durchs. HF 141 BPM HF max. 165 BPM
Wetter 27 °C Clear Min/Max: 24,4 °C/29,7 °C; Druck: 1018,5 mbar; Rel. Feuchte: 45,1%; Taupunkt: 14,4 °C; Windgeschwindigkeit: 1,3 km/h; Niederschlag: 0,0mm
Ausrüstung Mizuno - Wave Rider 18
Nogler - Einlagen NEU 1
Sigvaris - Sleeves & Socks
Notiz Moetz - Schotter - Telfs - Fiecht - Locherboden - Moetz ... heiss, locker - super! ... garmin connect
Splits
Distanz (km) Gesamt Zeit Split Zeit Split Tempo Split Tempo Höhenprofil (m)
1,00 00:04:47 00:04:47 00:04:48 12,5 -9,75
2,00 00:09:25 00:04:37 00:04:38 13,0 -0,79
3,00 00:14:00 00:04:34 00:04:35 13,1 -4,12
4,00 00:18:41 00:04:41 00:04:41 12,8 -3,40
5,00 00:23:19 00:04:38 00:04:38 12,9 -2,64
6,00 00:27:56 00:04:37 00:04:37 13,0 -2,09
7,00 00:32:31 00:04:34 00:04:35 13,1 -2,95
8,00 00:37:09 00:04:38 00:04:38 12,9 -1,63
9,00 00:41:47 00:04:37 00:04:38 13,0 3,03
10,00 00:46:23 00:04:36 00:04:36 13,0 -1,95
11,00 00:51:01 00:04:37 00:04:38 13,0 -2,48
12,00 00:55:42 00:04:41 00:04:41 12,8 -1,62
13,00 01:00:27 00:04:44 00:04:44 12,7 1,10
14,00 01:06:14 00:05:47 00:05:47 10,4 60,00
15,00 01:12:03 00:05:49 00:05:49 10,3 43,12
16,00 01:17:22 00:05:18 00:05:19 11,3 28,95
17,00 01:23:15 00:05:52 00:05:53 10,2 53,25
18,00 01:28:46 00:05:31 00:05:32 10,9 33,42
19,00 01:33:56 00:05:09 00:05:10 11,6 -0,79
20,00 01:39:41 00:05:45 00:05:46 10,4 31,75
21,00 01:43:57 00:04:15 00:04:16 14,1 -74,55
22,00 01:49:18 00:05:20 00:05:21 11,2 18,53
23,00 01:54:24 00:05:06 00:05:06 11,8 3,19
24,00 01:59:17 00:04:52 00:04:53 12,3 -41,61
25,00 02:03:45 00:04:28 00:04:28 13,4 -118,69
25,15 02:04:21 00:00:35 00:04:05 14,7 -4,65